Weather at Alejandro Velasco Astete International Airport

Public forecast

Using degrees Celsius for public forecast. Weather courtesy of forecast.io.

Current aviation weather report (METAR) for Alejandro Velasco Astete International Airport

2024/05/30 00:00 (retrieved 23 minutes ago)

SPZO 300000Z 32005KT 230V360 9999 NSC 15/M02 Q1032 NOSIG RMK BIRD HAZARD RWY 10/28 PP000

Closest aviation forecast (TAF) to Alejandro Velasco Astete International Airport

Closest forecast is Andahuaylas Airport, 83.0 nm (153.7 km) W.

2024/05/29 18:33 (retrieved 6 hours ago)

TAF SPHY 291700Z 2918/3018 34005KT 9999 SCT020 TX19/2920Z TN01/3011Z